createdAt,value
2019-03-11T00:00:27.555Z,5.21
2019-03-11T00:03:41.302Z,5.14
2019-03-11T00:06:55.353Z,5.12
2019-03-11T00:10:09.043Z,5.09
2019-03-11T00:13:23.255Z,5.00
2019-03-11T00:16:36.752Z,5.05
2019-03-11T00:19:50.349Z,5.14
2019-03-11T00:23:03.827Z,5.06
2019-03-11T00:26:17.426Z,4.99
2019-03-11T00:29:31.020Z,4.94
2019-03-11T00:32:44.768Z,5.08
2019-03-11T00:35:58.270Z,5.00
2019-03-11T00:39:11.769Z,4.85
2019-03-11T00:42:25.352Z,4.96
2019-03-11T00:45:38.943Z,4.97
2019-03-11T00:48:53.028Z,4.84
2019-03-11T00:52:06.514Z,4.97
2019-03-11T00:55:20.207Z,4.91
2019-03-11T00:58:33.989Z,4.92
2019-03-11T01:01:47.688Z,4.95
2019-03-11T01:05:01.286Z,4.90
2019-03-11T01:08:14.775Z,4.92
2019-03-11T01:11:28.372Z,4.99
2019-03-11T01:14:41.879Z,5.06
2019-03-11T01:17:55.346Z,5.20
2019-03-11T01:21:09.415Z,5.12
2019-03-11T01:24:22.903Z,5.11
2019-03-11T01:27:36.855Z,5.09
2019-03-11T01:30:50.647Z,5.14
2019-03-11T01:34:04.240Z,5.13
2019-03-11T01:37:17.957Z,4.97
2019-03-11T01:40:31.442Z,4.97
2019-03-11T01:43:44.920Z,5.04
2019-03-11T01:46:58.424Z,5.02
2019-03-11T01:50:12.229Z,4.95
2019-03-11T01:53:25.705Z,4.93
2019-03-11T01:56:39.193Z,4.84
2019-03-11T01:59:52.669Z,4.84
2019-03-11T02:03:06.608Z,4.93
2019-03-11T02:06:20.442Z,4.89
2019-03-11T02:09:34.263Z,4.93
2019-03-11T02:12:48.244Z,4.82
2019-03-11T02:16:01.843Z,4.83
2019-03-11T02:19:15.330Z,4.88
2019-03-11T02:22:28.943Z,5.02
2019-03-11T02:25:42.435Z,4.99
2019-03-11T02:28:55.915Z,4.98
2019-03-11T02:32:09.404Z,5.07
2019-03-11T02:35:27.269Z,5.22
2019-03-11T02:38:40.789Z,5.25
2019-03-11T02:41:54.267Z,5.33
2019-03-11T02:45:08.074Z,5.38
2019-03-11T02:48:21.902Z,5.38
2019-03-11T02:51:35.600Z,5.39
2019-03-11T02:54:49.368Z,5.38
2019-03-11T02:58:03.067Z,5.22
2019-03-11T03:01:51.628Z,5.20
2019-03-11T03:05:25.315Z,5.18
2019-03-11T03:08:38.809Z,5.18
2019-03-11T03:11:52.648Z,5.16
2019-03-11T03:15:06.460Z,5.15
2019-03-11T03:18:20.471Z,5.08
2019-03-11T03:21:33.957Z,4.95
2019-03-11T03:24:47.703Z,4.98
2019-03-11T03:28:01.471Z,4.89
2019-03-11T03:31:15.282Z,4.89
2019-03-11T03:34:28.773Z,4.91
2019-03-11T03:37:42.282Z,4.88
2019-03-11T03:40:55.872Z,4.96
2019-03-11T03:44:09.806Z,4.85
2019-03-11T03:47:23.270Z,4.88
2019-03-11T03:50:37.941Z,4.93
2019-03-11T03:53:51.965Z,4.89
2019-03-11T03:57:05.494Z,4.88
2019-03-11T04:00:19.047Z,4.90
2019-03-11T04:03:32.839Z,4.91
2019-03-11T04:06:46.317Z,4.93
2019-03-11T04:09:59.905Z,4.99
2019-03-11T04:13:13.396Z,4.97
2019-03-11T04:16:27.024Z,4.78
2019-03-11T04:19:40.973Z,4.54
2019-03-11T04:22:54.945Z,4.32
2019-03-11T04:26:08.916Z,4.24
2019-03-11T04:29:22.410Z,4.09
2019-03-11T04:32:35.991Z,4.03
2019-03-11T04:35:49.500Z,4.10
2019-03-11T04:39:04.921Z,3.94
2019-03-11T04:42:18.406Z,3.83
2019-03-11T04:45:31.879Z,3.80
2019-03-11T04:48:45.529Z,3.77
2019-03-11T04:51:59.026Z,3.75
2019-03-11T04:55:12.998Z,3.89
2019-03-11T04:58:26.898Z,3.74
2019-03-11T05:01:40.593Z,3.79
2019-03-11T05:04:54.483Z,3.73
2019-03-11T05:08:08.079Z,3.56
2019-03-11T05:11:21.560Z,3.74
2019-03-11T05:14:35.382Z,3.80
2019-03-11T05:17:49.129Z,3.92
2019-03-11T05:21:02.671Z,3.95
2019-03-11T05:24:16.490Z,4.06
2019-03-11T05:27:29.983Z,4.12
2019-03-11T05:30:50.127Z,4.15
2019-03-11T05:34:06.755Z,4.19
2019-03-11T05:37:20.666Z,4.15
2019-03-11T05:40:34.130Z,4.22
2019-03-11T05:43:47.638Z,4.21
2019-03-11T05:47:01.118Z,4.22
2019-03-11T05:50:14.807Z,4.19
2019-03-11T05:53:28.304Z,4.24
2019-03-11T05:56:41.787Z,4.36
2019-03-11T05:59:55.579Z,4.36
2019-03-11T06:03:09.087Z,4.35
2019-03-11T06:06:22.664Z,4.14
2019-03-11T06:09:36.163Z,4.05
2019-03-11T06:12:49.769Z,3.97
2019-03-11T06:16:03.457Z,3.90
2019-03-11T06:19:17.289Z,3.90
2019-03-11T06:22:32.163Z,3.80
2019-03-11T06:25:46.405Z,3.87
2019-03-11T06:29:00.219Z,3.87
2019-03-11T06:32:13.707Z,4.00
2019-03-11T06:35:27.327Z,3.99
2019-03-11T06:38:40.937Z,3.98
2019-03-11T06:41:54.458Z,4.08
2019-03-11T06:45:08.617Z,4.04
2019-03-11T06:48:22.476Z,4.10
2019-03-11T06:51:36.420Z,4.17
2019-03-11T06:54:50.139Z,4.11
2019-03-11T06:58:03.831Z,4.15
2019-03-11T07:01:17.358Z,4.07
2019-03-11T07:04:30.833Z,4.10
2019-03-11T07:07:44.420Z,4.07
2019-03-11T07:10:58.827Z,4.07
2019-03-11T07:14:12.448Z,4.12
2019-03-11T07:17:26.337Z,4.23
2019-03-11T07:20:39.945Z,4.43
2019-03-11T07:23:53.441Z,4.59
2019-03-11T07:27:07.699Z,4.69
2019-03-11T07:30:21.300Z,4.69
2019-03-11T07:33:34.790Z,4.76
2019-03-11T07:36:48.349Z,4.81
2019-03-11T07:40:02.090Z,4.88
2019-03-11T07:43:15.584Z,5.07
2019-03-11T07:46:29.212Z,5.17
2019-03-11T07:49:42.793Z,5.31
2019-03-11T07:52:56.349Z,5.17
2019-03-11T07:56:09.930Z,5.36
2019-03-11T07:59:23.405Z,5.40
2019-03-11T08:02:37.001Z,5.54
2019-03-11T08:05:50.801Z,5.78
2019-03-11T08:09:05.707Z,5.80
2019-03-11T08:12:19.208Z,5.70
2019-03-11T08:15:32.684Z,5.58
2019-03-11T08:18:46.437Z,5.55
2019-03-11T08:22:00.200Z,5.87
2019-03-11T08:25:14.115Z,5.86
2019-03-11T08:28:27.664Z,5.96
2019-03-11T08:31:41.145Z,5.77
2019-03-11T08:34:54.906Z,5.67
2019-03-11T08:38:08.405Z,5.99
2019-03-11T08:41:21.991Z,6.20
2019-03-11T08:44:35.476Z,6.19
2019-03-11T08:47:49.337Z,6.36
2019-03-11T08:51:02.914Z,6.53
2019-03-11T08:54:16.519Z,6.53
2019-03-11T08:57:30.012Z,6.94
2019-03-11T09:00:43.721Z,7.23
2019-03-11T09:03:57.315Z,6.93
2019-03-11T09:07:10.806Z,6.69
2019-03-11T09:10:24.297Z,6.91
2019-03-11T09:13:38.030Z,7.31
2019-03-11T09:16:51.510Z,7.27
2019-03-11T09:20:05.867Z,7.22
2019-03-11T09:23:19.334Z,7.33
2019-03-11T09:26:32.837Z,7.20
2019-03-11T09:29:46.347Z,7.18
2019-03-11T09:32:59.828Z,7.14
2019-03-11T09:36:13.332Z,6.89
2019-03-11T09:39:26.931Z,6.55
2019-03-11T09:42:40.618Z,6.52
2019-03-11T09:45:54.709Z,6.52
2019-03-11T09:49:08.303Z,6.57
2019-03-11T09:52:22.119Z,6.61
2019-03-11T09:55:35.600Z,6.24
2019-03-11T09:58:49.192Z,6.26
2019-03-11T10:02:02.880Z,6.28
2019-03-11T10:05:16.672Z,6.19
2019-03-11T10:08:30.164Z,6.34
2019-03-11T10:11:43.751Z,6.34
2019-03-11T10:14:57.554Z,6.56
2019-03-11T10:18:11.443Z,6.55
2019-03-11T10:21:24.939Z,6.59
2019-03-11T10:24:38.865Z,6.45
2019-03-11T10:27:52.344Z,6.98
2019-03-11T10:31:06.104Z,7.19
2019-03-11T10:34:20.270Z,7.16
2019-03-11T10:37:33.816Z,7.48
2019-03-11T10:40:47.822Z,8.02
2019-03-11T10:44:01.532Z,8.70
2019-03-11T10:47:15.030Z,9.04
2019-03-11T10:50:28.906Z,9.04
2019-03-11T10:53:42.807Z,8.93
2019-03-11T10:56:56.841Z,8.67
2019-03-11T11:00:13.212Z,7.85
2019-03-11T11:03:26.961Z,7.45
2019-03-11T11:06:40.491Z,7.51
2019-03-11T11:09:54.000Z,7.30
2019-03-11T11:13:07.719Z,7.11
2019-03-11T11:16:21.317Z,7.32
2019-03-11T11:19:35.527Z,7.14
2019-03-11T11:22:49.425Z,7.04
2019-03-11T11:26:03.107Z,6.74
2019-03-11T11:29:16.652Z,6.92
2019-03-11T11:32:30.516Z,6.90
2019-03-11T11:35:44.135Z,6.71
2019-03-11T11:38:57.941Z,6.82
2019-03-11T11:42:11.818Z,7.32
2019-03-11T11:45:25.803Z,8.62
2019-03-11T11:48:39.495Z,8.86
2019-03-11T11:51:52.996Z,8.43
2019-03-11T11:55:06.935Z,7.90
2019-03-11T11:58:20.540Z,7.62
2019-03-11T12:01:34.186Z,7.37
2019-03-11T12:04:48.189Z,7.67
2019-03-11T12:08:01.941Z,9.36
2019-03-11T12:11:15.558Z,10.80
2019-03-11T12:14:29.168Z,10.91
2019-03-11T12:17:43.209Z,11.31
2019-03-11T12:20:57.135Z,10.66
2019-03-11T12:24:10.775Z,9.39
2019-03-11T12:27:24.400Z,8.70
2019-03-11T12:30:38.306Z,8.48
2019-03-11T12:33:51.921Z,8.61
2019-03-11T12:37:05.555Z,8.39
2019-03-11T12:40:19.259Z,7.91
2019-03-11T12:43:32.967Z,8.07
2019-03-11T12:46:47.092Z,8.62
2019-03-11T12:50:00.635Z,8.73
2019-03-11T12:53:14.159Z,9.11
2019-03-11T12:56:28.050Z,8.92
2019-03-11T12:59:41.589Z,9.33
2019-03-11T13:02:55.802Z,10.40
2019-03-11T13:06:10.295Z,11.24
2019-03-11T13:09:23.791Z,11.45
2019-03-11T13:12:37.547Z,11.00
2019-03-11T13:15:51.307Z,10.24
2019-03-11T13:19:13.172Z,9.45
2019-03-11T13:22:21.787Z,9.15
2019-03-11T13:25:35.672Z,8.91
2019-03-11T13:28:49.310Z,9.11
2019-03-11T13:32:03.044Z,10.04
2019-03-11T13:35:16.777Z,10.03
2019-03-11T13:38:30.492Z,9.26
2019-03-11T13:41:44.369Z,8.58
2019-03-11T13:44:57.986Z,9.68
2019-03-11T13:48:11.741Z,11.05
2019-03-11T13:51:25.753Z,11.46
2019-03-11T13:54:39.882Z,11.22
2019-03-11T13:57:53.614Z,11.38
2019-03-11T14:01:07.298Z,10.85
2019-03-11T14:04:20.833Z,11.10
2019-03-11T14:07:34.869Z,11.64
2019-03-11T14:10:48.677Z,11.01
2019-03-11T14:14:02.954Z,9.99
2019-03-11T14:17:17.077Z,10.09
2019-03-11T14:20:30.655Z,9.96
2019-03-11T14:23:44.665Z,10.86
2019-03-11T14:26:58.213Z,9.87
2019-03-11T14:30:12.323Z,9.35
2019-03-11T14:33:26.035Z,8.68
2019-03-11T14:36:39.822Z,8.46
2019-03-11T14:39:53.465Z,8.24
2019-03-11T14:43:07.078Z,8.17
2019-03-11T14:46:20.594Z,8.34
2019-03-11T14:49:34.761Z,8.34
2019-03-11T14:52:48.314Z,8.55
2019-03-11T14:56:01.812Z,9.13
2019-03-11T14:59:15.321Z,9.60
2019-03-11T15:02:28.831Z,9.59
2019-03-11T15:05:42.586Z,9.47
2019-03-11T15:08:56.180Z,8.94
2019-03-11T15:12:09.932Z,8.96
2019-03-11T15:15:23.647Z,8.55
2019-03-11T15:18:37.734Z,8.54
2019-03-11T15:21:51.866Z,9.05
2019-03-11T15:25:06.334Z,9.35
2019-03-11T15:28:19.994Z,9.68
2019-03-11T15:31:33.490Z,9.89
2019-03-11T15:34:47.413Z,10.44
2019-03-11T15:38:01.140Z,10.54
2019-03-11T15:41:14.889Z,10.22
2019-03-11T15:44:28.912Z,8.98
2019-03-11T15:47:42.638Z,8.93
2019-03-11T15:50:56.585Z,8.74
2019-03-11T15:54:10.393Z,8.80
2019-03-11T15:57:24.504Z,8.57
2019-03-11T16:00:38.106Z,8.89
2019-03-11T16:03:51.889Z,9.40
2019-03-11T16:07:05.596Z,9.45
2019-03-11T16:10:19.505Z,9.29
2019-03-11T16:13:32.988Z,9.30
2019-03-11T16:16:46.622Z,8.82
2019-03-11T16:20:00.265Z,8.21
2019-03-11T16:23:14.094Z,7.96
2019-03-11T16:26:27.995Z,7.83
2019-03-11T16:29:41.889Z,7.87
2019-03-11T16:33:00.863Z,8.25
2019-03-11T16:36:11.115Z,8.37
2019-03-11T16:39:24.718Z,8.40
2019-03-11T16:42:38.414Z,8.01
2019-03-11T16:45:52.465Z,7.59
2019-03-11T16:49:06.059Z,7.29
2019-03-11T16:52:19.675Z,6.97
2019-03-11T16:55:35.372Z,6.94
2019-03-11T16:58:49.153Z,6.93
2019-03-11T17:02:02.948Z,6.76
2019-03-11T17:05:16.545Z,6.57
2019-03-11T17:08:30.322Z,6.53
2019-03-11T17:11:43.929Z,6.40
2019-03-11T17:14:57.527Z,6.23
2019-03-11T17:18:11.227Z,6.01
2019-03-11T17:21:24.835Z,5.78
2019-03-11T17:24:39.022Z,5.70
2019-03-11T17:27:52.996Z,5.58
2019-03-11T17:31:06.754Z,5.42
2019-03-11T17:34:20.263Z,5.36
2019-03-11T17:37:33.989Z,5.31
2019-03-11T17:40:47.579Z,5.26
2019-03-11T17:44:01.492Z,5.11
2019-03-11T17:47:15.076Z,5.03
2019-03-11T17:50:28.653Z,4.91
2019-03-11T17:53:42.239Z,4.75
2019-03-11T17:56:55.955Z,4.73
2019-03-11T18:00:15.554Z,4.66
2019-03-11T18:03:29.219Z,4.72
2019-03-11T18:06:42.803Z,4.69
2019-03-11T18:09:56.476Z,4.60
2019-03-11T18:13:10.271Z,4.55
2019-03-11T18:16:23.855Z,4.49
2019-03-11T18:19:37.511Z,4.43
2019-03-11T18:22:51.682Z,4.45
2019-03-11T18:26:05.158Z,4.45
2019-03-11T18:29:18.647Z,4.45
2019-03-11T18:32:32.566Z,4.46
2019-03-11T18:35:46.284Z,4.43
2019-03-11T18:39:00.184Z,4.33
2019-03-11T18:42:21.378Z,4.37
2019-03-11T18:45:29.238Z,4.35
2019-03-11T18:48:42.718Z,4.37
2019-03-11T18:51:56.234Z,4.34
2019-03-11T18:55:10.089Z,4.38
2019-03-11T18:58:23.678Z,4.47
2019-03-11T19:01:37.150Z,4.45
2019-03-11T19:04:50.651Z,4.49
2019-03-11T19:08:04.396Z,4.52
2019-03-11T19:11:17.982Z,4.49
2019-03-11T19:14:31.806Z,4.51
2019-03-11T19:17:45.488Z,4.54
2019-03-11T19:20:58.979Z,4.55
2019-03-11T19:24:12.539Z,4.60
2019-03-11T19:27:26.224Z,4.51
2019-03-11T19:30:39.829Z,4.57
2019-03-11T19:33:53.551Z,4.53
2019-03-11T19:37:07.140Z,4.51
2019-03-11T19:40:20.762Z,4.54
2019-03-11T19:43:34.290Z,4.51
2019-03-11T19:46:47.857Z,4.50
2019-03-11T19:50:01.610Z,4.42
2019-03-11T19:53:15.332Z,4.42
2019-03-11T19:56:29.073Z,4.42
2019-03-11T19:59:42.966Z,4.39
2019-03-11T20:02:56.555Z,4.47
2019-03-11T20:06:10.123Z,4.40
2019-03-11T20:09:24.038Z,4.48
2019-03-11T20:12:37.942Z,4.45
2019-03-11T20:15:53.945Z,4.41
2019-03-11T20:19:07.901Z,4.34
2019-03-11T20:22:21.636Z,4.34
2019-03-11T20:25:35.509Z,4.36
2019-03-11T20:28:48.993Z,4.30
2019-03-11T20:32:02.780Z,4.41
2019-03-11T20:35:17.791Z,4.36
2019-03-11T20:38:31.855Z,4.42
2019-03-11T20:41:45.407Z,4.35
2019-03-11T20:44:59.270Z,4.29
2019-03-11T20:48:12.837Z,4.29
2019-03-11T20:51:26.364Z,4.29
2019-03-11T20:54:40.149Z,4.25
2019-03-11T20:57:53.782Z,4.30
2019-03-11T21:01:07.608Z,4.27
2019-03-11T21:04:21.469Z,4.27
2019-03-11T21:07:34.929Z,4.36
2019-03-11T21:10:48.499Z,4.23
2019-03-11T21:14:02.386Z,4.25
2019-03-11T21:17:25.248Z,4.22
2019-03-11T21:20:31.535Z,4.16
2019-03-11T21:23:45.004Z,4.14
2019-03-11T21:26:58.679Z,4.21
2019-03-11T21:30:14.611Z,4.23
2019-03-11T21:33:28.203Z,4.12
2019-03-11T21:36:41.794Z,4.11
2019-03-11T21:39:55.283Z,4.16
2019-03-11T21:43:08.920Z,4.13
2019-03-11T21:46:22.445Z,4.12
2019-03-11T21:49:35.965Z,4.07
2019-03-11T21:52:49.621Z,4.17
2019-03-11T21:56:03.270Z,4.19
2019-03-11T21:59:17.095Z,4.14
2019-03-11T22:02:30.740Z,4.06
2019-03-11T22:05:44.615Z,4.08
2019-03-11T22:08:58.109Z,4.04
2019-03-11T22:12:12.131Z,4.14
2019-03-11T22:15:25.876Z,4.11
2019-03-11T22:18:39.627Z,4.00
2019-03-11T22:21:53.433Z,3.98
2019-03-11T22:25:08.818Z,4.00
2019-03-11T22:28:22.297Z,4.00
2019-03-11T22:31:35.845Z,3.97
2019-03-11T22:34:49.692Z,4.09
2019-03-11T22:38:03.278Z,4.00
2019-03-11T22:41:16.781Z,4.02
2019-03-11T22:44:30.258Z,4.06
2019-03-11T22:47:44.135Z,4.00
2019-03-11T22:50:57.625Z,3.92
2019-03-11T22:54:11.112Z,4.03
2019-03-11T23:01:41.232Z,3.90
2019-03-11T23:04:54.810Z,3.91
2019-03-11T23:08:08.912Z,3.86
2019-03-11T23:11:22.736Z,3.80
2019-03-11T23:14:36.211Z,3.93
2019-03-11T23:17:49.697Z,3.97
2019-03-11T23:21:03.367Z,3.79
2019-03-11T23:24:16.857Z,3.77
2019-03-11T23:27:30.440Z,3.94
2019-03-11T23:30:44.165Z,3.96
2019-03-11T23:33:57.985Z,3.91
2019-03-11T23:37:12.169Z,3.86
2019-03-11T23:40:25.927Z,3.85
2019-03-11T23:43:39.524Z,3.86
2019-03-11T23:46:53.092Z,3.87
2019-03-11T23:50:07.044Z,3.89
2019-03-11T23:53:20.810Z,3.90
2019-03-11T23:56:34.276Z,3.83
2019-03-11T23:59:47.854Z,3.67
